Time;durP1;ratioP1;P1;durP2;ratioP2;P2;SDS_P1;SDS_P2;PMS_P1;PMS_P2;Temp;Humidity;BMP_temperature;BMP_pressure;BME280_temperature;BME280_humidity;BME280_pressure;Samples;Min_cycle;Max_cycle;Signal;HPM_P1;HPM_P2
2022/03/15 00:01:37;;;;;;;24.30;21.83;;;6.30;99.90;;;;;;4984233;28;20472;-70
2022/03/15 00:04:05;;;;;;;24.70;22.27;;;6.30;99.90;;;;;;5000565;28;20502;-70
2022/03/15 00:06:36;;;;;;;27.47;22.07;;;6.20;99.90;;;;;;4996618;28;20460;-69
2022/03/15 00:09:02;;;;;;;33.03;22.43;;;6.20;99.90;;;;;;5002093;28;20467;-70
2022/03/15 00:11:30;;;;;;;25.63;23.43;;;6.20;99.90;;;;;;5003485;28;20532;-70
2022/03/15 00:13:58;;;;;;;25.33;22.50;;;6.10;99.90;;;;;;5004373;28;20820;-70
2022/03/15 00:16:25;;;;;;;25.03;22.57;;;6.10;99.90;;;;;;4998955;28;20895;-69
2022/03/15 00:18:53;;;;;;;26.33;23.47;;;6.00;99.90;;;;;;5005266;28;21068;-70
2022/03/15 00:21:20;;;;;;;25.27;23.17;;;5.80;99.90;;;;;;5002140;28;20495;-70
2022/03/15 00:23:47;;;;;;;36.17;24.63;;;5.80;99.90;;;;;;5004677;28;20941;-70
2022/03/15 00:26:14;;;;;;;24.53;21.90;;;5.70;99.90;;;;;;5003751;28;20969;-70
2022/03/15 00:28:41;;;;;;;25.27;23.03;;;5.50;99.90;;;;;;5003522;28;20829;-70
2022/03/15 00:31:08;;;;;;;26.13;23.63;;;5.50;99.90;;;;;;4997109;28;20481;-72
2022/03/15 00:33:35;;;;;;;24.77;22.27;;;5.40;99.90;;;;;;5003589;28;20470;-74
2022/03/15 00:36:03;;;;;;;25.13;22.70;;;5.30;99.90;;;;;;5004392;28;20494;-70
2022/03/15 00:38:31;;;;;;;24.50;22.40;;;5.20;99.90;;;;;;5039297;28;20488;-70
2022/03/15 00:40:58;;;;;;;23.87;21.97;;;5.20;99.90;;;;;;5045419;28;20992;-70
2022/03/15 00:43:25;;;;;;;23.97;21.73;;;5.20;99.90;;;;;;5042484;28;20460;-70
2022/03/15 00:45:52;;;;;;;24.37;22.17;;;5.20;99.90;;;;;;5039359;28;20455;-73
2022/03/15 00:51:00;;;;;;;26.10;22.37;;;5.10;99.90;;;;;;5036095;28;20461;-69
2022/03/15 00:53:28;;;;;;;23.30;20.97;;;5.00;99.90;;;;;;5046006;28;20457;-73
2022/03/15 00:56:09;;;;;;;24.07;22.27;;;4.90;99.90;;;;;;5037361;28;20499;-71
2022/03/15 00:58:36;;;;;;;24.20;22.10;;;4.90;99.90;;;;;;5041668;28;20965;-71
2022/03/15 01:01:18;;;;;;;25.17;22.83;;;4.90;99.90;;;;;;5043890;28;20455;-72
2022/03/15 01:03:45;;;;;;;25.37;22.93;;;4.90;99.90;;;;;;5039996;28;20474;-74
2022/03/15 01:06:12;;;;;;;24.47;22.27;;;4.90;99.90;;;;;;5044703;28;20461;-72
2022/03/15 01:08:40;;;;;;;26.03;23.60;;;4.90;99.90;;;;;;5039506;28;20460;-74
2022/03/15 01:11:07;;;;;;;31.90;23.63;;;4.90;99.90;;;;;;5036772;28;20468;-75
2022/03/15 01:13:34;;;;;;;26.07;23.37;;;4.90;99.90;;;;;;5041273;28;20658;-71
2022/03/15 01:16:01;;;;;;;30.57;22.10;;;4.80;99.90;;;;;;5035853;28;20498;-72
2022/03/15 01:18:30;;;;;;;23.93;21.60;;;4.70;99.90;;;;;;5031056;28;20464;-72
2022/03/15 01:20:56;;;;;;;31.23;23.70;;;4.60;99.90;;;;;;5043294;28;20474;-72
2022/03/15 01:23:23;;;;;;;26.17;23.50;;;4.60;99.90;;;;;;5044312;28;20482;-71
2022/03/15 01:25:52;;;;;;;24.97;22.80;;;4.50;99.90;;;;;;5040457;28;20468;-72
2022/03/15 01:28:19;;;;;;;23.83;21.90;;;4.60;99.90;;;;;;5041037;28;20496;-73
2022/03/15 01:30:46;;;;;;;24.87;22.20;;;4.60;99.90;;;;;;5044225;28;21013;-72
2022/03/15 01:33:13;;;;;;;25.70;23.33;;;4.60;99.90;;;;;;5036552;28;20556;-72
2022/03/15 01:35:40;;;;;;;27.03;23.10;;;4.60;99.90;;;;;;5045719;28;20489;-74
2022/03/15 01:38:07;;;;;;;24.60;22.33;;;4.60;99.90;;;;;;5038695;28;20490;-73
2022/03/15 01:40:34;;;;;;;26.37;23.97;;;4.60;99.90;;;;;;5038613;28;20826;-72
2022/03/15 01:43:03;;;;;;;26.90;24.23;;;4.60;99.90;;;;;;5039254;28;20520;-71
2022/03/15 01:45:34;;;;;;;32.70;24.07;;;4.60;99.90;;;;;;5042576;28;20468;-72
2022/03/15 01:48:01;;;;;;;26.37;23.90;;;4.70;99.90;;;;;;5042061;28;20636;-71
2022/03/15 01:50:29;;;;;;;28.70;25.17;;;4.70;99.90;;;;;;5041899;28;20510;-72
2022/03/15 01:52:56;;;;;;;25.53;23.00;;;4.70;99.90;;;;;;5043478;28;20494;-74
2022/03/15 01:55:23;;;;;;;28.13;23.57;;;4.80;99.90;;;;;;5038321;28;20864;-73
2022/03/15 01:57:50;;;;;;;27.47;24.63;;;4.80;99.90;;;;;;5037972;28;20460;-74
2022/03/15 02:00:20;;;;;;;23.50;21.47;;;4.90;99.90;;;;;;5041112;28;20521;-71
2022/03/15 02:02:47;;;;;;;26.40;23.60;;;4.90;99.90;;;;;;5041219;28;20464;-74
2022/03/15 02:05:14;;;;;;;25.20;22.60;;;4.80;99.90;;;;;;5042882;28;21024;-71
2022/03/15 02:07:41;;;;;;;26.80;24.10;;;4.80;99.90;;;;;;5038189;28;20469;-71
2022/03/15 02:10:08;;;;;;;24.20;22.50;;;4.70;99.90;;;;;;5039902;28;20823;-74
2022/03/15 02:12:38;;;;;;;26.80;24.20;;;4.70;99.90;;;;;;5038323;28;21101;-71
2022/03/15 02:15:08;;;;;;;25.20;23.00;;;4.70;99.90;;;;;;5041261;28;20492;-74
2022/03/15 02:17:37;;;;;;;25.23;22.60;;;4.60;99.90;;;;;;5040289;28;20463;-71
2022/03/15 02:20:09;;;;;;;23.83;21.60;;;4.70;99.90;;;;;;5043537;28;20460;-71
2022/03/15 02:22:36;;;;;;;31.30;23.10;;;4.60;99.90;;;;;;5038477;28;20470;-71
2022/03/15 02:25:05;;;;;;;24.63;22.63;;;4.60;99.90;;;;;;5038626;28;20476;-71
2022/03/15 02:27:31;;;;;;;25.70;23.53;;;4.60;99.90;;;;;;5040159;28;20947;-71
2022/03/15 02:29:58;;;;;;;23.43;21.60;;;4.70;99.90;;;;;;5039932;28;20486;-71
2022/03/15 02:32:25;;;;;;;24.80;22.50;;;4.70;99.90;;;;;;5040472;28;20461;-71
2022/03/15 02:34:52;;;;;;;25.40;22.53;;;4.70;99.90;;;;;;5034342;28;20476;-71
2022/03/15 02:37:20;;;;;;;31.97;21.87;;;4.70;99.90;;;;;;5038961;28;20496;-71
2022/03/15 02:39:47;;;;;;;25.33;22.77;;;4.70;99.90;;;;;;5034340;28;20471;-71
2022/03/15 02:42:14;;;;;;;26.73;22.40;;;4.70;99.90;;;;;;5035412;28;20476;-74
2022/03/15 02:44:41;;;;;;;23.20;21.10;;;4.70;99.90;;;;;;5043092;28;20982;-72
2022/03/15 02:47:08;;;;;;;23.37;20.90;;;4.70;99.90;;;;;;5044012;28;20463;-73
2022/03/15 02:49:35;;;;;;;25.43;21.53;;;4.80;99.90;;;;;;5039482;28;20456;-71
2022/03/15 02:52:02;;;;;;;26.57;22.17;;;4.80;99.90;;;;;;5037938;28;20965;-71
2022/03/15 02:54:30;;;;;;;24.73;22.40;;;4.80;99.90;;;;;;5039054;28;20460;-71
2022/03/15 02:56:57;;;;;;;28.47;22.00;;;4.80;99.90;;;;;;5045217;28;20530;-71
2022/03/15 02:59:25;;;;;;;30.70;21.83;;;4.80;99.90;;;;;;5038294;28;20464;-71
2022/03/15 03:01:52;;;;;;;24.83;22.50;;;4.80;99.90;;;;;;5040405;28;20523;-72
2022/03/15 03:04:19;;;;;;;26.73;22.37;;;4.90;99.90;;;;;;5044613;28;20861;-72
2022/03/15 03:06:46;;;;;;;24.93;22.60;;;5.00;99.90;;;;;;5032620;28;20801;-71
2022/03/15 03:09:14;;;;;;;30.13;22.70;;;5.00;99.90;;;;;;5033205;28;20756;-71
2022/03/15 03:11:42;;;;;;;24.43;21.67;;;5.10;99.90;;;;;;5039474;28;20500;-71
2022/03/15 03:14:13;;;;;;;24.40;21.93;;;5.10;99.90;;;;;;5040391;28;20458;-71
2022/03/15 03:16:41;;;;;;;29.43;22.20;;;5.20;99.90;;;;;;5036967;28;20551;-71
2022/03/15 03:19:08;;;;;;;29.27;23.50;;;5.20;99.90;;;;;;5030170;28;20604;-71
2022/03/15 03:21:36;;;;;;;24.80;22.40;;;5.30;99.90;;;;;;5042124;28;20469;-72
2022/03/15 03:24:06;;;;;;;24.17;21.80;;;5.30;99.90;;;;;;5033792;28;20500;-74
2022/03/15 03:26:37;;;;;;;24.03;21.70;;;5.30;99.90;;;;;;5038188;28;20461;-72
2022/03/15 03:29:06;;;;;;;23.97;21.57;;;5.30;99.90;;;;;;5040762;28;20492;-71
2022/03/15 03:31:33;;;;;;;23.37;21.20;;;5.40;99.90;;;;;;5040760;28;20485;-74
2022/03/15 03:34:00;;;;;;;22.97;20.47;;;5.30;99.90;;;;;;5039286;28;20465;-73
2022/03/15 03:36:27;;;;;;;23.43;20.70;;;5.40;99.90;;;;;;5042175;28;20494;-74
2022/03/15 03:38:54;;;;;;;23.10;21.03;;;5.40;99.90;;;;;;5040735;28;20491;-73
2022/03/15 03:41:21;;;;;;;25.27;20.47;;;5.50;99.90;;;;;;5037117;28;20476;-71
2022/03/15 03:43:48;;;;;;;23.07;20.67;;;5.50;99.90;;;;;;5035423;28;20464;-74
2022/03/15 03:46:17;;;;;;;22.03;19.97;;;5.60;99.90;;;;;;5039205;28;20460;-74
2022/03/15 03:48:44;;;;;;;22.87;20.67;;;5.60;99.90;;;;;;5040964;28;20978;-73
2022/03/15 03:51:12;;;;;;;22.87;20.90;;;5.60;99.90;;;;;;5044033;28;20487;-72
2022/03/15 03:53:39;;;;;;;32.50;22.10;;;5.70;99.90;;;;;;5034152;28;20516;-73
2022/03/15 03:56:07;;;;;;;21.43;19.10;;;5.70;99.90;;;;;;5036339;28;20488;-73
2022/03/15 03:58:34;;;;;;;21.60;19.53;;;5.80;99.90;;;;;;5038358;28;20560;-72
2022/03/15 04:01:01;;;;;;;21.57;19.50;;;5.70;99.90;;;;;;5042102;28;20518;-74
2022/03/15 04:03:31;;;;;;;21.20;19.30;;;5.70;99.90;;;;;;5043136;28;20982;-70
2022/03/15 04:06:01;;;;;;;20.33;18.30;;;5.80;99.90;;;;;;5039464;28;20472;-74
2022/03/15 04:08:28;;;;;;;21.10;19.13;;;5.70;99.90;;;;;;5037814;28;20530;-74
2022/03/15 04:10:54;;;;;;;21.43;19.30;;;5.80;99.90;;;;;;5041495;28;20456;-73
2022/03/15 04:13:21;;;;;;;31.77;18.80;;;5.80;99.90;;;;;;5039615;28;20460;-73
2022/03/15 04:15:49;;;;;;;21.13;18.50;;;5.80;99.90;;;;;;5039246;28;20484;-72
2022/03/15 04:18:17;;;;;;;24.90;20.00;;;5.80;99.90;;;;;;5036983;28;20561;-73
2022/03/15 04:20:45;;;;;;;23.13;18.70;;;5.80;99.90;;;;;;5035365;28;20871;-73
2022/03/15 04:23:12;;;;;;;20.57;18.30;;;5.90;99.90;;;;;;5040964;28;20962;-73
2022/03/15 04:25:40;;;;;;;20.23;18.10;;;5.90;99.90;;;;;;5034075;28;20984;-73
2022/03/15 04:28:07;;;;;;;20.57;18.67;;;5.90;99.90;;;;;;5040416;28;20478;-71
2022/03/15 04:30:35;;;;;;;20.10;18.40;;;5.90;99.90;;;;;;5039699;28;20844;-71
2022/03/15 04:33:02;;;;;;;22.67;20.07;;;5.90;99.90;;;;;;5035472;28;20972;-72
2022/03/15 04:35:29;;;;;;;22.40;18.90;;;5.90;99.90;;;;;;5040413;28;20826;-71
2022/03/15 04:37:58;;;;;;;18.63;17.13;;;5.90;99.90;;;;;;5038804;28;20542;-72
2022/03/15 04:40:25;;;;;;;20.73;18.87;;;5.90;99.90;;;;;;5039365;28;20464;-71
2022/03/15 04:42:52;;;;;;;19.83;17.70;;;5.90;99.90;;;;;;5038714;28;21002;-71
2022/03/15 04:45:20;;;;;;;25.20;18.50;;;5.90;99.90;;;;;;5038817;28;20488;-71
2022/03/15 04:47:47;;;;;;;29.17;18.80;;;5.90;99.90;;;;;;5039149;28;20836;-71
2022/03/15 04:50:15;;;;;;;25.50;17.93;;;5.90;99.90;;;;;;5041709;28;20462;-71
2022/03/15 04:52:42;;;;;;;20.90;18.00;;;5.90;99.90;;;;;;5041682;28;20880;-71
2022/03/15 04:55:11;;;;;;;18.77;17.47;;;5.90;99.90;;;;;;5039628;28;20467;-71
2022/03/15 04:57:37;;;;;;;19.63;18.00;;;5.90;99.90;;;;;;5041510;28;20488;-71
2022/03/15 05:00:09;;;;;;;21.57;18.80;;;6.00;99.90;;;;;;5045882;28;20473;-71
2022/03/15 05:02:36;;;;;;;21.37;19.00;;;6.00;99.90;;;;;;5022097;28;21206;-71
2022/03/15 05:05:04;;;;;;;31.53;18.37;;;6.00;99.90;;;;;;5009481;28;20469;-71
2022/03/15 05:07:30;;;;;;;21.63;18.73;;;6.00;99.90;;;;;;5009323;28;20473;-71
2022/03/15 05:12:43;;;;;;;21.87;19.43;;;6.10;99.90;;;;;;5010405;28;20471;-72
2022/03/15 05:15:10;;;;;;;20.33;18.17;;;6.20;99.90;;;;;;5009922;28;20870;-71
2022/03/15 05:17:37;;;;;;;20.00;18.17;;;6.10;99.90;;;;;;5012039;28;20488;-74
2022/03/15 05:20:05;;;;;;;21.13;19.17;;;6.20;99.90;;;;;;5010559;28;20576;-75
2022/03/15 05:22:33;;;;;;;20.27;18.50;;;6.20;99.90;;;;;;5011060;28;20460;-71
2022/03/15 05:25:00;;;;;;;20.27;18.40;;;6.20;99.90;;;;;;5011499;28;20464;-70
2022/03/15 05:27:27;;;;;;;21.40;18.60;;;6.10;99.90;;;;;;5011117;28;20469;-72
2022/03/15 05:29:55;;;;;;;23.67;19.60;;;6.10;99.90;;;;;;5010446;28;21435;-70
2022/03/15 05:32:22;;;;;;;20.20;18.50;;;6.10;99.90;;;;;;5010048;28;21006;-70
2022/03/15 05:34:48;;;;;;;23.53;19.37;;;6.10;99.90;;;;;;5010510;28;20480;-69
2022/03/15 05:37:15;;;;;;;27.27;19.57;;;6.10;99.90;;;;;;5008525;28;20492;-71
2022/03/15 05:39:42;;;;;;;24.47;18.63;;;6.10;99.90;;;;;;5011224;28;20472;-73
2022/03/15 05:42:11;;;;;;;21.27;19.37;;;6.10;99.90;;;;;;5011261;28;20466;-68
2022/03/15 05:44:38;;;;;;;27.17;19.80;;;6.10;99.90;;;;;;5011502;28;20570;-71
2022/03/15 05:47:08;;;;;;;23.97;20.60;;;6.20;99.90;;;;;;5011204;28;21292;-70
2022/03/15 05:49:35;;;;;;;31.03;19.60;;;6.20;99.90;;;;;;5011352;28;21021;-69
2022/03/15 05:52:03;;;;;;;22.63;20.27;;;6.20;99.90;;;;;;5011408;28;20485;-72
2022/03/15 05:54:30;;;;;;;22.30;20.00;;;6.20;99.90;;;;;;5011625;28;20960;-71
2022/03/15 05:56:57;;;;;;;23.73;19.40;;;6.30;99.90;;;;;;5010733;28;20481;-72
2022/03/15 05:59:23;;;;;;;19.90;18.40;;;6.30;99.90;;;;;;5010618;28;20460;-71
2022/03/15 06:01:50;;;;;;;21.23;19.10;;;6.30;99.90;;;;;;5010363;28;20490;-70
2022/03/15 06:04:19;;;;;;;21.13;18.90;;;6.20;99.90;;;;;;5010157;28;20558;-71
2022/03/15 06:06:46;;;;;;;20.40;18.67;;;6.20;99.90;;;;;;5008234;28;20469;-70
2022/03/15 06:09:12;;;;;;;24.17;19.33;;;6.30;99.90;;;;;;5010025;28;20476;-73
2022/03/15 06:11:39;;;;;;;21.23;19.30;;;6.30;99.90;;;;;;5009079;28;20476;-72
2022/03/15 06:14:07;;;;;;;34.50;21.73;;;6.30;99.90;;;;;;5008686;28;21001;-73
2022/03/15 06:16:33;;;;;;;23.60;21.03;;;6.40;99.90;;;;;;5009337;28;20484;-73
2022/03/15 06:19:01;;;;;;;23.93;21.27;;;6.40;99.90;;;;;;5010528;28;20467;-72
2022/03/15 06:21:29;;;;;;;26.30;20.60;;;6.40;99.90;;;;;;5009076;28;20460;-72
2022/03/15 06:23:56;;;;;;;23.47;21.03;;;6.50;99.90;;;;;;5009697;28;20986;-71
2022/03/15 06:26:23;;;;;;;22.70;20.37;;;6.50;99.90;;;;;;5010894;28;21496;-71
2022/03/15 06:28:49;;;;;;;23.00;20.53;;;6.50;99.90;;;;;;5010617;28;20472;-71
2022/03/15 06:31:16;;;;;;;23.87;21.43;;;6.50;99.90;;;;;;5008761;28;21248;-73
2022/03/15 06:33:43;;;;;;;22.33;20.53;;;6.60;99.90;;;;;;5007324;28;20459;-73
2022/03/15 06:36:11;;;;;;;22.90;20.57;;;6.60;99.90;;;;;;5011077;28;20476;-70
2022/03/15 06:38:40;;;;;;;23.43;21.00;;;6.60;99.90;;;;;;4997420;28;20503;-69
2022/03/15 06:41:07;;;;;;;23.67;21.43;;;6.60;99.90;;;;;;5004546;28;20736;-71
2022/03/15 06:43:35;;;;;;;23.03;21.10;;;6.60;99.90;;;;;;5001052;28;21673;-70
2022/03/15 06:46:02;;;;;;;24.10;21.90;;;6.60;99.90;;;;;;5005573;28;20540;-71
2022/03/15 06:48:28;;;;;;;24.03;21.40;;;6.70;99.90;;;;;;5005908;28;20552;-71
2022/03/15 06:50:55;;;;;;;22.77;20.67;;;6.70;99.90;;;;;;5004291;28;20477;-71
2022/03/15 06:53:22;;;;;;;22.73;20.50;;;6.80;99.90;;;;;;5004380;28;21098;-70
2022/03/15 06:55:51;;;;;;;29.10;22.40;;;6.90;99.90;;;;;;5004422;28;20460;-73
2022/03/15 06:58:18;;;;;;;22.70;20.33;;;7.00;99.90;;;;;;5003592;28;21007;-71
2022/03/15 07:00:47;;;;;;;29.67;21.70;;;7.00;99.90;;;;;;5003062;28;20471;-72
2022/03/15 07:03:14;;;;;;;24.70;22.00;;;7.00;99.90;;;;;;5002512;28;21016;-73
2022/03/15 07:05:41;;;;;;;23.50;21.27;;;7.20;99.90;;;;;;5003248;28;20478;-71
2022/03/15 07:08:08;;;;;;;26.60;20.80;;;7.20;99.90;;;;;;5003398;28;20512;-70
2022/03/15 07:10:35;;;;;;;23.90;21.43;;;7.30;99.90;;;;;;5004000;28;20459;-71
2022/03/15 07:13:03;;;;;;;31.63;20.27;;;7.30;99.90;;;;;;5016529;28;20471;-71
2022/03/15 07:15:30;;;;;;;23.67;21.20;;;7.30;99.90;;;;;;5031059;28;20463;-73
2022/03/15 07:17:59;;;;;;;23.87;21.63;;;7.40;99.90;;;;;;5031979;28;20493;-72
2022/03/15 07:20:27;;;;;;;27.23;21.57;;;7.50;99.90;;;;;;5015996;28;20458;-71
2022/03/15 07:22:54;;;;;;;24.97;21.73;;;7.60;99.90;;;;;;5003018;28;20524;-73
2022/03/15 07:25:22;;;;;;;26.47;21.80;;;7.80;99.90;;;;;;5003369;28;21301;-71
2022/03/15 07:27:49;;;;;;;24.50;20.53;;;7.90;99.90;;;;;;5003891;28;21006;-71
2022/03/15 07:30:18;;;;;;;25.83;23.07;;;8.10;99.90;;;;;;5003784;28;20487;-72
2022/03/15 07:32:44;;;;;;;23.40;21.60;;;8.30;99.90;;;;;;5001819;28;20476;-70
2022/03/15 07:35:11;;;;;;;25.53;21.57;;;8.30;99.90;;;;;;5003560;28;20483;-71
2022/03/15 07:37:39;;;;;;;23.17;20.97;;;8.30;99.90;;;;;;5004036;28;20504;-71
2022/03/15 07:40:08;;;;;;;26.97;23.27;;;8.40;99.90;;;;;;5003854;28;20994;-71
2022/03/15 07:42:35;;;;;;;23.93;21.37;;;8.40;99.90;;;;;;5002301;28;20465;-71
2022/03/15 07:45:02;;;;;;;23.73;21.30;;;8.50;99.90;;;;;;5004722;28;20460;-71
2022/03/15 07:47:30;;;;;;;27.60;21.90;;;8.50;99.90;;;;;;5003788;28;20479;-71
2022/03/15 07:49:57;;;;;;;30.70;23.20;;;8.50;99.90;;;;;;5003159;28;20649;-71
2022/03/15 07:52:24;;;;;;;26.77;20.97;;;8.50;99.90;;;;;;5003696;28;21077;-70
2022/03/15 07:54:50;;;;;;;23.10;20.97;;;8.40;99.90;;;;;;5002905;28;20491;-71
2022/03/15 07:57:17;;;;;;;28.13;22.97;;;8.40;99.90;;;;;;5003977;28;20489;-72
2022/03/15 07:59:46;;;;;;;23.90;21.40;;;8.40;99.90;;;;;;5001597;28;21088;-71
2022/03/15 08:02:14;;;;;;;27.07;22.57;;;8.50;99.90;;;;;;5001041;28;23045;-73
2022/03/15 08:04:42;;;;;;;24.30;21.87;;;8.60;99.90;;;;;;5013936;28;20476;-70
2022/03/15 08:07:09;;;;;;;31.57;21.60;;;8.80;99.90;;;;;;5028559;28;20543;-73
2022/03/15 08:09:38;;;;;;;25.90;20.50;;;8.80;99.90;;;;;;5028304;28;20859;-71
2022/03/15 08:12:05;;;;;;;27.57;21.13;;;8.90;99.90;;;;;;5003787;28;20463;-73
2022/03/15 08:14:32;;;;;;;25.23;20.83;;;9.00;99.90;;;;;;5034882;28;20554;-71
2022/03/15 08:17:00;;;;;;;28.00;20.30;;;8.90;99.90;;;;;;5002378;28;20523;-71
2022/03/15 08:19:28;;;;;;;23.60;20.57;;;9.00;99.90;;;;;;5003606;28;22399;-71
2022/03/15 08:21:58;;;;;;;23.90;21.33;;;9.00;99.90;;;;;;5002273;28;20814;-71
2022/03/15 08:24:25;;;;;;;22.93;20.47;;;8.90;99.90;;;;;;4999035;28;20538;-73
2022/03/15 08:26:52;;;;;;;38.20;23.13;;;8.80;99.90;;;;;;5001842;28;21279;-72
2022/03/15 08:29:18;;;;;;;27.33;22.70;;;8.60;99.90;;;;;;5003963;28;20465;-72
2022/03/15 08:31:45;;;;;;;23.73;21.30;;;8.80;99.90;;;;;;5007346;28;20484;-70
2022/03/15 08:34:12;;;;;;;24.43;21.17;;;8.80;99.90;;;;;;5006088;28;20573;-70
2022/03/15 08:36:39;;;;;;;30.37;22.07;;;8.90;99.90;;;;;;5003818;28;20480;-71
2022/03/15 08:39:07;;;;;;;27.97;21.83;;;9.00;99.90;;;;;;4967151;28;20519;-71
2022/03/15 08:41:34;;;;;;;27.37;21.87;;;9.00;99.90;;;;;;4967230;28;20556;-71
2022/03/15 08:44:01;;;;;;;24.00;21.60;;;9.10;99.90;;;;;;4965631;28;20458;-71
2022/03/15 08:46:28;;;;;;;27.67;21.53;;;9.10;99.90;;;;;;4967312;28;20466;-71
2022/03/15 08:48:55;;;;;;;23.47;21.03;;;9.10;99.90;;;;;;4967847;28;20467;-71
2022/03/15 08:51:22;;;;;;;22.67;20.63;;;8.90;99.90;;;;;;4966602;28;20724;-72
2022/03/15 08:53:49;;;;;;;23.33;21.23;;;8.80;99.90;;;;;;4967612;28;20477;-73
2022/03/15 08:56:17;;;;;;;28.70;21.23;;;8.90;99.90;;;;;;4967024;28;20463;-71
2022/03/15 08:58:44;;;;;;;26.93;21.40;;;8.90;99.90;;;;;;4965302;28;20952;-71
2022/03/15 09:01:11;;;;;;;23.40;20.90;;;8.90;99.90;;;;;;4966008;28;20462;-72
2022/03/15 09:03:38;;;;;;;30.87;20.30;;;8.90;99.90;;;;;;4966394;28;20534;-70
2022/03/15 09:06:05;;;;;;;24.90;21.17;;;8.90;99.90;;;;;;4966442;28;20470;-70
2022/03/15 09:08:32;;;;;;;28.17;22.97;;;8.90;99.90;;;;;;4966604;28;21024;-70
2022/03/15 09:11:03;;;;;;;30.10;20.63;;;8.90;99.90;;;;;;4966859;28;21200;-70
2022/03/15 09:13:31;;;;;;;26.00;20.80;;;9.00;99.90;;;;;;4965249;28;20614;-72
2022/03/15 09:15:58;;;;;;;27.03;21.07;;;9.10;99.90;;;;;;4965095;28;20478;-71
2022/03/15 09:18:26;;;;;;;28.83;20.33;;;8.90;99.90;;;;;;4965300;28;21024;-70
2022/03/15 09:20:53;;;;;;;23.43;20.97;;;8.90;99.90;;;;;;4966645;28;20466;-69
2022/03/15 09:23:20;;;;;;;24.90;21.10;;;9.10;99.90;;;;;;4966215;28;20913;-70
2022/03/15 09:25:49;;;;;;;23.03;20.90;;;9.20;99.90;;;;;;4967240;28;20467;-70
2022/03/15 09:28:16;;;;;;;25.90;23.30;;;9.10;99.90;;;;;;4965261;28;20861;-71
2022/03/15 09:30:45;;;;;;;27.93;25.17;;;9.10;99.90;;;;;;4964189;28;20483;-71
2022/03/15 09:33:12;;;;;;;40.23;26.80;;;9.40;99.90;;;;;;4965202;28;20562;-69
2022/03/15 09:35:40;;;;;;;29.20;26.47;;;9.40;99.90;;;;;;4962746;28;20478;-69
2022/03/15 09:38:07;;;;;;;28.57;25.93;;;9.60;99.90;;;;;;4963440;28;20577;-70
2022/03/15 09:40:34;;;;;;;28.50;26.20;;;9.60;99.90;;;;;;4963001;28;20497;-70
2022/03/15 09:43:05;;;;;;;36.00;27.60;;;9.70;99.90;;;;;;4964633;28;20478;-70
2022/03/15 09:45:34;;;;;;;29.80;26.70;;;9.70;99.90;;;;;;4965653;28;20958;-71
2022/03/15 09:48:05;;;;;;;29.37;26.60;;;9.70;99.90;;;;;;4963758;28;20475;-70
2022/03/15 09:50:33;;;;;;;30.20;27.47;;;9.70;99.90;;;;;;4964616;28;20463;-71
2022/03/15 09:53:01;;;;;;;28.23;25.40;;;9.80;99.90;;;;;;4965101;28;21196;-70
2022/03/15 09:55:29;;;;;;;28.47;25.57;;;9.90;99.90;;;;;;4964179;28;20601;-71
2022/03/15 09:57:56;;;;;;;27.27;24.90;;;10.00;99.90;;;;;;4962984;28;20493;-72
2022/03/15 10:00:24;;;;;;;26.87;24.20;;;10.10;99.90;;;;;;4962711;28;21039;-71
2022/03/15 10:02:52;;;;;;;34.10;24.27;;;10.10;99.90;;;;;;4962472;28;21223;-71
2022/03/15 10:05:21;;;;;;;25.97;23.30;;;10.20;99.90;;;;;;4962294;28;20462;-69
2022/03/15 10:07:48;;;;;;;24.87;22.50;;;10.20;99.90;;;;;;4961869;28;20469;-70
2022/03/15 10:10:16;;;;;;;24.47;22.13;;;10.30;99.90;;;;;;4971648;28;20465;-71
2022/03/15 10:12:44;;;;;;;25.83;23.10;;;10.20;99.90;;;;;;4993533;28;20493;-69
2022/03/15 10:15:14;;;;;;;27.33;22.80;;;10.20;99.90;;;;;;4969171;28;21262;-70
2022/03/15 10:17:45;;;;;;;26.10;23.23;;;10.30;99.90;;;;;;4981678;28;20509;-70
2022/03/15 10:20:15;;;;;;;25.53;22.87;;;10.40;99.90;;;;;;4962456;28;20463;-71
2022/03/15 10:22:53;;;;;;;25.37;22.77;;;10.50;99.90;;;;;;4962358;28;20945;-70
2022/03/15 10:25:22;;;;;;;24.60;22.30;;;10.50;99.90;;;;;;4962275;28;20904;-70
2022/03/15 10:27:52;;;;;;;37.87;22.93;;;10.70;99.90;;;;;;4961289;28;20471;-70
2022/03/15 10:30:19;;;;;;;23.63;21.53;;;10.80;99.90;;;;;;4962594;28;21066;-71
2022/03/15 10:32:48;;;;;;;23.37;21.20;;;10.90;99.90;;;;;;4962955;28;20470;-71
2022/03/15 10:35:19;;;;;;;30.40;25.27;;;11.00;99.90;;;;;;4964241;28;20473;-71
2022/03/15 10:37:46;;;;;;;23.60;21.53;;;11.10;99.90;;;;;;4984181;28;20488;-71
2022/03/15 10:40:14;;;;;;;22.80;20.43;;;11.10;99.90;;;;;;5004552;28;21343;-71
2022/03/15 10:42:43;;;;;;;24.33;22.17;;;11.00;99.90;;;;;;5004393;28;20467;-71
2022/03/15 10:45:21;;;;;;;25.30;22.90;;;10.90;99.90;;;;;;5004490;28;20472;-71
2022/03/15 10:47:49;;;;;;;25.87;23.27;;;10.90;99.90;;;;;;5004529;28;20475;-72
2022/03/15 10:50:17;;;;;;;26.03;23.70;;;10.90;99.90;;;;;;5004167;28;20946;-70
2022/03/15 10:52:45;;;;;;;25.40;22.27;;;11.00;99.90;;;;;;5003762;28;20864;-71
2022/03/15 10:55:16;;;;;;;35.40;21.63;;;11.10;99.90;;;;;;5005139;28;20531;-70
2022/03/15 10:57:48;;;;;;;26.47;22.30;;;11.20;99.90;;;;;;5004146;28;20488;-71
2022/03/15 11:00:17;;;;;;;28.03;22.87;;;11.30;99.90;;;;;;5003293;28;20472;-70
2022/03/15 11:02:45;;;;;;;26.57;24.00;;;11.20;99.90;;;;;;5002905;28;20901;-70
2022/03/15 11:05:12;;;;;;;28.47;25.70;;;11.10;99.90;;;;;;5002454;28;22920;-70
2022/03/15 11:07:40;;;;;;;33.17;28.33;;;10.80;99.90;;;;;;5003272;28;20465;-70
2022/03/15 11:10:12;;;;;;;31.87;28.87;;;10.80;99.90;;;;;;5004192;28;20556;-70
2022/03/15 11:12:55;;;;;;;33.03;29.73;;;10.60;99.90;;;;;;5004178;28;20476;-70
2022/03/15 11:15:30;;;;;;;34.40;31.20;;;10.60;99.90;;;;;;5026851;28;20815;-70
2022/03/15 11:18:00;;;;;;;38.47;34.57;;;10.50;99.90;;;;;;5030175;28;20490;-71
2022/03/15 11:20:31;;;;;;;41.03;37.07;;;10.50;99.90;;;;;;5022281;28;20848;-70
2022/03/15 11:23:00;;;;;;;40.50;36.53;;;10.70;99.90;;;;;;5004299;28;20473;-70
2022/03/15 11:25:34;;;;;;;40.27;36.60;;;10.60;99.90;;;;;;5003538;28;20994;-70
2022/03/15 11:28:05;;;;;;;41.23;37.07;;;10.60;99.90;;;;;;5003953;28;20468;-70
2022/03/15 11:30:33;;;;;;;41.57;37.50;;;10.70;99.90;;;;;;5003523;28;20476;-71
2022/03/15 11:33:02;;;;;;;41.00;36.67;;;10.80;99.90;;;;;;5002688;28;20495;-69
2022/03/15 11:35:31;;;;;;;40.07;36.13;;;10.90;99.90;;;;;;5002297;28;20476;-69
2022/03/15 11:38:00;;;;;;;41.20;36.57;;;10.80;99.90;;;;;;4977965;28;21223;-70
2022/03/15 11:40:28;;;;;;;39.83;35.73;;;10.70;99.90;;;;;;4963211;28;21321;-71
2022/03/15 11:43:09;;;;;;;42.77;38.27;;;10.60;99.90;;;;;;4962928;28;20546;-69
2022/03/15 11:45:41;;;;;;;40.60;36.80;;;10.50;99.90;;;;;;4964253;28;21108;-69
2022/03/15 11:48:13;;;;;;;40.57;36.50;;;10.50;99.90;;;;;;4964380;28;20828;-69
2022/03/15 11:50:49;;;;;;;40.37;36.27;;;10.60;99.90;;;;;;4963684;28;20526;-69
2022/03/15 11:53:26;;;;;;;45.20;36.50;;;10.60;99.90;;;;;;4963908;28;20472;-70
2022/03/15 11:56:00;;;;;;;39.83;35.90;;;10.60;99.90;;;;;;4961035;28;20463;-71
2022/03/15 11:58:30;;;;;;;43.73;37.50;;;10.60;99.90;;;;;;4963162;28;20866;-69
2022/03/15 12:01:09;;;;;;;40.50;36.57;;;10.80;99.90;;;;;;4963091;28;21270;-71
2022/03/15 12:03:45;;;;;;;39.60;35.70;;;10.90;99.90;;;;;;4966224;28;20461;-71
2022/03/15 12:06:18;;;;;;;41.57;37.37;;;10.90;99.90;;;;;;4967111;28;20470;-69
2022/03/15 12:08:52;;;;;;;42.40;36.03;;;11.00;99.90;;;;;;4963792;28;20462;-69
2022/03/15 12:11:28;;;;;;;39.70;35.70;;;10.80;99.90;;;;;;4967150;28;20469;-69
2022/03/15 12:14:03;;;;;;;39.47;35.50;;;11.00;99.90;;;;;;4967421;28;20470;-70
2022/03/15 12:16:36;;;;;;;37.47;33.67;;;11.20;99.90;;;;;;4967443;28;20470;-69
2022/03/15 12:19:15;;;;;;;44.37;35.47;;;11.20;99.90;;;;;;4966679;28;21567;-69
2022/03/15 12:21:49;;;;;;;39.17;35.07;;;11.30;99.90;;;;;;4966202;28;20543;-70
2022/03/15 12:24:18;;;;;;;39.23;35.43;;;11.40;99.90;;;;;;4965772;28;20472;-70
2022/03/15 12:26:47;;;;;;;38.57;34.90;;;11.50;99.90;;;;;;4965641;28;20708;-69
2022/03/15 12:29:17;;;;;;;39.47;35.13;;;11.50;99.90;;;;;;4967175;28;20868;-69
2022/03/15 12:31:46;;;;;;;41.20;36.80;;;11.60;99.90;;;;;;4966928;28;20492;-69
2022/03/15 12:34:15;;;;;;;37.97;34.43;;;11.80;99.90;;;;;;4965463;28;21043;-70
2022/03/15 12:36:49;;;;;;;38.63;35.17;;;12.00;99.90;;;;;;4969990;28;21768;-69
2022/03/15 12:39:18;;;;;;;39.63;35.83;;;12.30;99.90;;;;;;5004176;28;20488;-69
2022/03/15 12:41:46;;;;;;;46.90;36.23;;;12.40;99.90;;;;;;5005705;28;20503;-71
2022/03/15 12:44:16;;;;;;;39.07;35.10;;;12.30;99.90;;;;;;5006730;28;22320;-70
2022/03/15 12:46:44;;;;;;;38.60;34.70;;;12.20;99.90;;;;;;5007016;28;20465;-70